createdAt,value
2023-02-11T00:01:22.740Z,103309.56
2023-02-11T00:04:08.356Z,103316.44
2023-02-11T00:06:55.136Z,103326.03
2023-02-11T00:09:40.569Z,103327.81
2023-02-11T00:12:26.085Z,103323.50
2023-02-11T00:15:11.616Z,103328.69
2023-02-11T00:17:56.978Z,103318.22
2023-02-11T00:20:42.861Z,103311.34
2023-02-11T00:23:28.054Z,103309.56
2023-02-11T00:26:16.018Z,103301.75
2023-02-11T00:29:02.644Z,103306.97
2023-02-11T00:31:50.142Z,103306.88
2023-02-11T00:34:36.815Z,103308.50
2023-02-11T00:37:22.714Z,103301.44
2023-02-11T00:40:08.779Z,103305.56
2023-02-11T00:42:54.157Z,103302.91
2023-02-11T00:45:39.372Z,103303.72
2023-02-11T00:48:24.941Z,103313.13
2023-02-11T00:51:10.691Z,103313.94
2023-02-11T00:53:55.986Z,103324.16
2023-02-11T00:56:42.044Z,103330.16
2023-02-11T00:59:27.531Z,103332.69
2023-02-11T01:02:13.305Z,103331.81
2023-02-11T01:05:00.229Z,103327.50
2023-02-11T01:07:45.798Z,103330.09
2023-02-11T01:10:31.680Z,103331.00
2023-02-11T01:13:16.923Z,103325.72
2023-02-11T01:16:02.307Z,103330.94
2023-02-11T01:18:48.282Z,103330.00
2023-02-11T01:21:36.038Z,103324.81
2023-02-11T01:24:21.325Z,103329.22
2023-02-11T01:27:06.739Z,103326.63
2023-02-11T01:29:51.958Z,103327.56
2023-02-11T01:32:39.908Z,103319.78
2023-02-11T01:35:27.447Z,103312.97
2023-02-11T01:38:17.522Z,103309.53
2023-02-11T01:41:08.180Z,103300.88
2023-02-11T01:43:53.576Z,103299.09
2023-02-11T01:46:39.009Z,103290.31
2023-02-11T01:49:35.286Z,103287.66
2023-02-11T01:52:37.057Z,103292.63
2023-02-11T01:55:41.044Z,103292.47
2023-02-11T01:58:29.140Z,103283.66
2023-02-11T02:01:19.763Z,103270.69
2023-02-11T02:04:08.464Z,103282.63
2023-02-11T02:07:02.811Z,103282.63
2023-02-11T02:09:58.870Z,103280.91
2023-02-11T02:12:44.189Z,103287.06
2023-02-11T02:15:38.368Z,103281.16
2023-02-11T02:19:11.506Z,103274.28
2023-02-11T02:22:06.327Z,103270.84
2023-02-11T02:25:12.053Z,103269.16
2023-02-11T02:28:29.385Z,103269.16
2023-02-11T02:31:17.992Z,103269.16
2023-02-11T02:34:13.563Z,103275.09
2023-02-11T02:37:11.793Z,103272.25
2023-02-11T02:39:59.821Z,103278.81
2023-02-11T02:42:46.236Z,103275.13
2023-02-11T02:45:33.175Z,103278.41
2023-02-11T02:48:33.836Z,103273.13
2023-02-11T02:51:49.405Z,103274.03
2023-02-11T02:54:40.959Z,103264.69
2023-02-11T02:57:58.826Z,103263.22
2023-02-11T03:01:01.787Z,103253.06
2023-02-11T03:04:18.603Z,103255.91
2023-02-11T03:07:22.807Z,103249.84
2023-02-11T03:10:20.938Z,103249.09
2023-02-11T03:13:07.787Z,103242.13
2023-02-11T03:15:57.288Z,103242.19
2023-02-11T03:18:46.842Z,103245.72
2023-02-11T03:21:36.477Z,103240.50
2023-02-11T03:24:30.791Z,103242.94
2023-02-11T03:27:41.563Z,103241.72
2023-02-11T03:30:32.645Z,103241.38
2023-02-11T03:34:08.935Z,103236.69
2023-02-11T03:36:57.172Z,103225.91
2023-02-11T03:39:50.457Z,103229.41
2023-02-11T03:42:42.565Z,103226.81
2023-02-11T03:45:29.210Z,103240.69
2023-02-11T03:48:52.680Z,103236.38
2023-02-11T03:51:39.386Z,103238.25
2023-02-11T03:54:30.478Z,103232.16
2023-02-11T03:57:15.878Z,103238.16
2023-02-11T04:00:01.579Z,103244.16
2023-02-11T04:02:56.857Z,103241.47
2023-02-11T04:05:42.399Z,103241.47
2023-02-11T04:08:28.090Z,103243.28
2023-02-11T04:11:13.705Z,103245.16
2023-02-11T04:13:59.008Z,103246.91
2023-02-11T04:16:45.384Z,103250.50
2023-02-11T04:19:31.348Z,103244.47
2023-02-11T04:22:16.792Z,103258.28
2023-02-11T04:25:02.182Z,103258.38
2023-02-11T04:27:47.578Z,103260.16
2023-02-11T04:30:33.008Z,103252.44
2023-02-11T04:33:18.376Z,103256.72
2023-02-11T04:36:03.738Z,103253.25
2023-02-11T04:38:49.906Z,103252.44
2023-02-11T04:41:35.239Z,103257.63
2023-02-11T04:44:20.675Z,103249.03
2023-02-11T04:47:06.303Z,103248.28
2023-02-11T04:49:51.626Z,103257.06
2023-02-11T04:52:37.141Z,103261.50
2023-02-11T04:55:22.488Z,103259.75
2023-02-11T04:58:07.911Z,103255.34
2023-02-11T05:00:53.328Z,103258.03
2023-02-11T05:03:38.741Z,103264.09
2023-02-11T05:06:24.687Z,103261.50
2023-02-11T05:09:13.274Z,103273.69
2023-02-11T05:11:58.600Z,103270.28
2023-02-11T05:14:43.970Z,103266.78
2023-02-11T05:17:29.287Z,103263.31
2023-02-11T05:20:15.817Z,103266.72
2023-02-11T05:23:01.392Z,103267.63
2023-02-11T05:25:46.653Z,103262.44
2023-02-11T05:28:32.130Z,103269.38
2023-02-11T05:31:17.531Z,103259.00
2023-02-11T05:34:04.190Z,103259.84
2023-02-11T05:36:49.573Z,103257.22
2023-02-11T05:39:34.992Z,103259.00
2023-02-11T05:42:20.342Z,103261.59
2023-02-11T05:45:06.225Z,103262.50
2023-02-11T05:47:51.978Z,103264.19
2023-02-11T05:50:37.454Z,103269.47
2023-02-11T05:53:23.101Z,103266.78
2023-02-11T05:56:08.650Z,103258.19
2023-02-11T05:58:53.985Z,103267.84
2023-02-11T06:01:39.372Z,103265.25
2023-02-11T06:04:24.644Z,103267.84
2023-02-11T06:07:10.144Z,103269.66
2023-02-11T06:09:55.622Z,103261.03
2023-02-11T06:12:40.966Z,103264.53
2023-02-11T06:15:26.455Z,103268.91
2023-02-11T06:18:11.747Z,103264.69
2023-02-11T06:20:57.102Z,103259.56
2023-02-11T06:23:43.642Z,103262.97
2023-02-11T06:26:29.008Z,103254.38
2023-02-11T06:29:14.756Z,103250.78
2023-02-11T06:32:00.190Z,103250.06
2023-02-11T06:34:46.532Z,103251.88
2023-02-11T06:37:31.785Z,103251.06
2023-02-11T06:40:17.159Z,103251.94
2023-02-11T06:43:02.632Z,103255.59
2023-02-11T06:45:55.797Z,103243.34
2023-02-11T06:48:43.136Z,103238.22
2023-02-11T06:51:30.043Z,103237.44
2023-02-11T06:54:15.665Z,103245.28
2023-02-11T06:57:01.118Z,103240.03
2023-02-11T06:59:47.424Z,103244.47
2023-02-11T07:02:32.942Z,103242.78
2023-02-11T07:05:18.207Z,103236.75
2023-02-11T07:08:03.682Z,103248.94
2023-02-11T07:10:48.996Z,103242.00
2023-02-11T07:13:34.311Z,103238.63
2023-02-11T07:16:20.510Z,103246.47
2023-02-11T07:19:05.954Z,103240.47
2023-02-11T07:21:52.469Z,103243.97
2023-02-11T07:24:38.001Z,103231.97
2023-02-11T07:27:23.442Z,103226.84
2023-02-11T07:30:09.569Z,103235.66
2023-02-11T07:32:56.778Z,103238.34
2023-02-11T07:35:42.792Z,103240.06
2023-02-11T07:38:28.554Z,103241.94
2023-02-11T07:41:17.124Z,103237.69
2023-02-11T07:44:03.510Z,103235.09
2023-02-11T07:46:49.376Z,103239.41
2023-02-11T07:49:34.550Z,103242.16
2023-02-11T07:52:20.274Z,103250.09
2023-02-11T07:55:06.216Z,103239.78
2023-02-11T07:57:51.828Z,103238.81
2023-02-11T08:00:37.430Z,103241.50
2023-02-11T08:03:22.960Z,103245.06
2023-02-11T08:06:11.271Z,103239.84
2023-02-11T08:08:57.111Z,103245.06
2023-02-11T08:11:42.981Z,103239.84
2023-02-11T08:14:28.670Z,103244.25
2023-02-11T08:17:13.934Z,103240.09
2023-02-11T08:19:59.426Z,103232.47
2023-02-11T08:22:44.816Z,103239.56
2023-02-11T08:25:30.073Z,103242.34
2023-02-11T08:28:15.578Z,103239.91
2023-02-11T08:31:09.098Z,103238.19
2023-02-11T08:33:57.932Z,103240.06
2023-02-11T08:36:43.823Z,103242.78
2023-02-11T08:39:29.220Z,103251.56
2023-02-11T08:42:15.712Z,103261.13
2023-02-11T08:45:01.327Z,103258.53
2023-02-11T08:47:46.584Z,103259.53
2023-02-11T08:50:32.405Z,103259.69
2023-02-11T08:53:17.930Z,103262.34
2023-02-11T08:56:03.908Z,103263.44
2023-02-11T08:58:50.450Z,103267.03
2023-02-11T09:01:35.981Z,103270.72
2023-02-11T09:04:21.175Z,103281.13
2023-02-11T09:07:07.443Z,103277.88
2023-02-11T09:09:53.105Z,103274.53
2023-02-11T09:12:38.693Z,103274.59
2023-02-11T09:15:24.034Z,103278.16
2023-02-11T09:18:09.333Z,103280.16
2023-02-11T09:21:05.887Z,103285.56
2023-02-11T09:23:51.644Z,103292.72
2023-02-11T09:26:37.780Z,103300.72
2023-02-11T09:29:23.581Z,103292.31
2023-02-11T09:32:10.053Z,103295.88
2023-02-11T09:34:55.626Z,103292.53
2023-02-11T09:37:40.996Z,103290.94
2023-02-11T09:40:26.387Z,103298.91
2023-02-11T09:43:24.934Z,103302.59
2023-02-11T09:46:15.237Z,103301.91
2023-02-11T09:49:02.181Z,103309.13
2023-02-11T09:52:24.976Z,103305.91
2023-02-11T09:55:19.581Z,103310.44
2023-02-11T09:58:15.186Z,103308.94
2023-02-11T10:01:19.962Z,103313.19
2023-02-11T10:04:48.907Z,103310.66
2023-02-11T10:07:34.163Z,103321.97
2023-02-11T10:10:37.221Z,103315.94
2023-02-11T10:13:47.526Z,103316.97
2023-02-11T10:16:41.976Z,103321.50
2023-02-11T10:19:45.807Z,103316.50
2023-02-11T10:22:41.478Z,103307.19
2023-02-11T10:25:27.116Z,103322.06
2023-02-11T10:28:19.041Z,103317.88
2023-02-11T10:31:15.978Z,103323.28
2023-02-11T10:34:05.513Z,103315.78
2023-02-11T10:36:51.399Z,103319.47
2023-02-11T10:39:37.066Z,103331.13
2023-02-11T10:42:22.657Z,103332.16
2023-02-11T10:45:17.891Z,103326.19
2023-02-11T10:48:27.349Z,103322.97
2023-02-11T10:51:23.418Z,103326.69
2023-02-11T10:54:13.876Z,103328.50
2023-02-11T10:57:00.318Z,103321.59
2023-02-11T10:59:46.051Z,103310.50
2023-02-11T11:02:34.776Z,103319.31
2023-02-11T11:05:28.061Z,103315.03
2023-02-11T11:08:13.568Z,103304.84
2023-02-11T11:11:05.770Z,103304.16
2023-02-11T11:13:54.138Z,103308.59
2023-02-11T11:16:54.611Z,103304.59
2023-02-11T11:19:39.950Z,103303.91
2023-02-11T11:22:25.338Z,103298.88
2023-02-11T11:25:30.622Z,103307.75
2023-02-11T11:28:23.944Z,103314.94
2023-02-11T11:31:37.438Z,103308.94
2023-02-11T11:34:26.294Z,103314.47
2023-02-11T11:37:15.178Z,103308.41
2023-02-11T11:40:11.558Z,103296.47
2023-02-11T11:43:15.576Z,103297.69
2023-02-11T11:46:02.896Z,103292.00
2023-02-11T11:48:51.848Z,103290.75
2023-02-11T11:51:41.959Z,103285.75
2023-02-11T11:54:29.336Z,103286.94
2023-02-11T11:57:25.724Z,103285.97
2023-02-11T12:00:20.964Z,103287.88
2023-02-11T12:03:09.233Z,103285.34
2023-02-11T12:06:18.624Z,103274.22
2023-02-11T12:09:19.864Z,103270.09
2023-02-11T12:12:32.872Z,103276.25
2023-02-11T12:15:43.253Z,103267.53
2023-02-11T12:18:53.415Z,103264.00
2023-02-11T12:22:02.984Z,103257.03
2023-02-11T12:25:16.882Z,103258.13
2023-02-11T12:28:35.932Z,103258.56
2023-02-11T12:31:47.951Z,103261.28
2023-02-11T12:34:53.829Z,103255.94
2023-02-11T12:37:59.386Z,103257.53
2023-02-11T12:41:10.431Z,103250.53
2023-02-11T12:43:56.197Z,103255.69
2023-02-11T12:46:51.691Z,103259.97
2023-02-11T12:49:49.795Z,103266.78
2023-02-11T12:52:50.946Z,103266.03
2023-02-11T12:55:42.898Z,103260.59
2023-02-11T12:58:44.146Z,103260.41
2023-02-11T13:01:40.890Z,103263.72
2023-02-11T13:04:33.443Z,103253.28
2023-02-11T13:07:29.809Z,103249.81
2023-02-11T13:10:30.409Z,103248.88
2023-02-11T13:13:45.021Z,103248.00
2023-02-11T13:16:33.652Z,103251.38
2023-02-11T13:19:42.675Z,103253.06
2023-02-11T13:22:44.219Z,103255.47
2023-02-11T13:25:36.275Z,103252.63
2023-02-11T13:28:54.402Z,103261.44
2023-02-11T13:31:39.918Z,103259.69
2023-02-11T13:34:46.539Z,103257.03
2023-02-11T13:37:37.491Z,103257.91
2023-02-11T13:40:45.204Z,103262.31
2023-02-11T13:43:33.086Z,103257.03
2023-02-11T13:46:20.204Z,103251.00
2023-02-11T13:49:05.469Z,103250.84
2023-02-11T13:51:52.449Z,103240.50
2023-02-11T13:54:39.920Z,103243.28
2023-02-11T13:57:32.767Z,103242.56
2023-02-11T14:00:33.826Z,103234.13
2023-02-11T14:03:55.478Z,103225.69
2023-02-11T14:07:45.416Z,103226.06
2023-02-11T14:10:43.076Z,103222.91
2023-02-11T14:13:34.654Z,103216.91
2023-02-11T14:16:36.331Z,103212.56
2023-02-11T14:19:33.138Z,103206.69
2023-02-11T14:22:18.665Z,103207.75
2023-02-11T14:25:15.474Z,103194.69
2023-02-11T14:28:16.308Z,103192.06
2023-02-11T14:31:12.560Z,103197.44
2023-02-11T14:34:08.317Z,103196.56
2023-02-11T14:37:18.254Z,103186.94
2023-02-11T14:40:10.994Z,103189.44
2023-02-11T14:43:02.144Z,103189.28
2023-02-11T14:45:53.687Z,103188.44
2023-02-11T14:48:45.756Z,103192.78
2023-02-11T14:51:36.490Z,103193.56
2023-02-11T14:54:26.594Z,103187.34
2023-02-11T14:57:18.263Z,103189.91
2023-02-11T15:00:19.830Z,103190.63
2023-02-11T15:03:05.510Z,103194.06
2023-02-11T15:06:04.365Z,103194.78
2023-02-11T15:08:58.324Z,103198.97
2023-02-11T15:11:46.950Z,103194.34
2023-02-11T15:14:35.636Z,103194.09
2023-02-11T15:17:28.188Z,103201.78
2023-02-11T15:20:27.799Z,103197.22
2023-02-11T15:23:23.521Z,103193.41
2023-02-11T15:26:21.537Z,103196.41
2023-02-11T15:29:16.843Z,103198.03
2023-02-11T15:32:12.430Z,103199.56
2023-02-11T15:34:58.630Z,103199.44
2023-02-11T15:37:44.822Z,103207.22
2023-02-11T15:40:33.255Z,103198.47
2023-02-11T15:43:18.522Z,103198.47
2023-02-11T15:46:03.883Z,103200.16
2023-02-11T15:48:55.027Z,103206.88
2023-02-11T15:51:44.791Z,103204.00
2023-02-11T15:54:32.200Z,103198.66
2023-02-11T15:57:18.204Z,103207.25
2023-02-11T16:00:07.238Z,103207.06
2023-02-11T16:02:57.416Z,103207.00
2023-02-11T16:05:43.008Z,103207.66
2023-02-11T16:08:33.006Z,103210.91
2023-02-11T16:11:33.588Z,103213.31
2023-02-11T16:14:27.991Z,103213.97
2023-02-11T16:17:26.117Z,103209.50
2023-02-11T16:20:19.909Z,103212.91
2023-02-11T16:23:07.532Z,103208.38
2023-02-11T16:26:26.487Z,103214.28
2023-02-11T16:29:18.191Z,103211.63
2023-02-11T16:32:17.574Z,103213.97
2023-02-11T16:35:11.361Z,103212.13
2023-02-11T16:37:57.083Z,103216.38
2023-02-11T16:40:44.578Z,103217.91
2023-02-11T16:43:30.281Z,103216.06
2023-02-11T16:46:16.223Z,103220.22
2023-02-11T16:49:11.747Z,103215.81
2023-02-11T16:52:03.594Z,103212.16
2023-02-11T16:54:49.459Z,103208.66
2023-02-11T16:57:34.925Z,103218.97
2023-02-11T17:00:20.821Z,103218.97
2023-02-11T17:03:08.319Z,103215.31
2023-02-11T17:05:55.930Z,103229.94
2023-02-11T17:08:41.608Z,103234.94
2023-02-11T17:11:27.139Z,103235.72
2023-02-11T17:14:12.599Z,103230.44
2023-02-11T17:16:58.410Z,103239.13
2023-02-11T17:19:44.019Z,103235.72
2023-02-11T17:22:29.661Z,103238.09
2023-02-11T17:25:15.156Z,103233.59
2023-02-11T17:28:00.624Z,103237.00
2023-02-11T17:30:46.291Z,103246.47
2023-02-11T17:33:33.976Z,103242.91
2023-02-11T17:36:20.822Z,103241.09
2023-02-11T17:39:08.254Z,103241.88
2023-02-11T17:41:53.978Z,103245.25
2023-02-11T17:44:39.409Z,103239.97
2023-02-11T17:47:25.646Z,103235.63
2023-02-11T17:50:11.318Z,103236.31
2023-02-11T17:52:57.305Z,103243.19
2023-02-11T17:55:43.137Z,103244.00
2023-02-11T17:58:28.903Z,103243.91
2023-02-11T18:01:14.323Z,103243.91
2023-02-11T18:03:59.900Z,103257.81
2023-02-11T18:06:46.448Z,103259.41
2023-02-11T18:09:35.923Z,103267.97
2023-02-11T18:12:25.311Z,103266.09
2023-02-11T18:15:10.907Z,103266.88
2023-02-11T18:17:56.268Z,103259.81
2023-02-11T18:21:03.478Z,103261.44
2023-02-11T18:23:50.253Z,103269.09
2023-02-11T18:26:36.499Z,103264.56
2023-02-11T18:29:22.017Z,103270.69
2023-02-11T18:32:07.461Z,103272.38
2023-02-11T18:34:52.716Z,103271.44
2023-02-11T18:37:37.956Z,103273.16
2023-02-11T18:40:23.516Z,103273.03
2023-02-11T18:43:08.834Z,103274.75
2023-02-11T18:45:54.634Z,103279.91
2023-02-11T18:48:41.452Z,103275.41
2023-02-11T18:51:26.984Z,103270.97
2023-02-11T18:54:13.590Z,103275.19
2023-02-11T18:56:58.959Z,103284.66
2023-02-11T18:59:44.482Z,103279.38
2023-02-11T19:02:29.865Z,103283.75
2023-02-11T19:05:15.830Z,103290.72
2023-02-11T19:08:01.458Z,103288.13
2023-02-11T19:10:48.157Z,103295.88
2023-02-11T19:13:33.708Z,103301.94
2023-02-11T19:16:19.970Z,103296.69
2023-02-11T19:19:05.847Z,103294.91
2023-02-11T19:21:51.420Z,103293.84
2023-02-11T19:24:37.568Z,103292.06
2023-02-11T19:27:22.900Z,103301.59
2023-02-11T19:30:09.629Z,103294.53
2023-02-11T19:32:57.223Z,103286.50
2023-02-11T19:35:42.521Z,103288.16
2023-02-11T19:38:28.062Z,103278.47
2023-02-11T19:41:16.106Z,103274.09
2023-02-11T19:44:02.448Z,103269.56
2023-02-11T19:46:50.287Z,103266.88
2023-02-11T19:49:35.984Z,103270.22
2023-02-11T19:52:21.709Z,103270.97
2023-02-11T19:55:07.952Z,103269.94
2023-02-11T19:57:53.589Z,103269.84
2023-02-11T20:00:39.771Z,103261.91
2023-02-11T20:03:25.260Z,103262.72
2023-02-11T20:06:17.241Z,103263.59
2023-02-11T20:09:06.710Z,103269.63
2023-02-11T20:11:52.470Z,103257.38
2023-02-11T20:14:38.056Z,103257.28
2023-02-11T20:17:23.666Z,103257.16
2023-02-11T20:20:09.623Z,103264.16
2023-02-11T20:22:55.112Z,103266.75
2023-02-11T20:25:40.513Z,103265.75
2023-02-11T20:28:25.940Z,103258.75
2023-02-11T20:31:12.650Z,103265.03
2023-02-11T20:33:58.772Z,103255.34
2023-02-11T20:36:51.702Z,103268.22
2023-02-11T20:39:40.986Z,103274.94
2023-02-11T20:42:27.499Z,103271.31
2023-02-11T20:45:12.934Z,103271.16
2023-02-11T20:47:58.224Z,103271.09
2023-02-11T20:50:43.435Z,103278.81
2023-02-11T20:53:28.987Z,103282.06
2023-02-11T20:56:14.449Z,103282.88
2023-02-11T20:59:01.160Z,103286.97
2023-02-11T21:01:59.025Z,103285.16
2023-02-11T21:04:44.486Z,103288.50
2023-02-11T21:07:29.783Z,103285.03
2023-02-11T21:10:15.043Z,103289.31
2023-02-11T21:13:00.543Z,103292.81
2023-02-11T21:15:46.127Z,103288.50
2023-02-11T21:18:32.732Z,103297.38
2023-02-11T21:21:19.708Z,103296.53
2023-02-11T21:24:06.739Z,103308.00
2023-02-11T21:26:52.171Z,103302.78
2023-02-11T21:29:52.671Z,103299.47
2023-02-11T21:32:39.684Z,103302.06
2023-02-11T21:35:25.633Z,103301.22
2023-02-11T21:38:11.228Z,103306.41
2023-02-11T21:41:03.274Z,103308.13
2023-02-11T21:43:49.572Z,103307.41
2023-02-11T21:46:35.422Z,103309.09
2023-02-11T21:49:21.569Z,103313.34
2023-02-11T21:52:06.913Z,103316.66
2023-02-11T21:54:52.127Z,103313.09
2023-02-11T21:57:37.638Z,103318.22
2023-02-11T22:00:23.258Z,103319.13
2023-02-11T22:03:08.724Z,103312.97
2023-02-11T22:05:54.530Z,103318.03
2023-02-11T22:08:40.782Z,103322.44
2023-02-11T22:11:26.117Z,103317.47
2023-02-11T22:14:11.573Z,103310.81
2023-02-11T22:16:56.905Z,103314.44
2023-02-11T22:19:42.225Z,103322.34
2023-02-11T22:22:29.192Z,103313.72
2023-02-11T22:25:15.558Z,103321.44
2023-02-11T22:28:01.313Z,103317.03
2023-02-11T22:30:46.679Z,103315.50
2023-02-11T22:33:32.151Z,103316.47
2023-02-11T22:36:19.027Z,103310.59
2023-02-11T22:39:07.415Z,103307.19
2023-02-11T22:41:54.461Z,103305.41
2023-02-11T22:44:40.182Z,103303.66
2023-02-11T22:47:25.571Z,103297.53
2023-02-11T22:50:11.290Z,103307.78
2023-02-11T22:52:56.704Z,103302.50
2023-02-11T22:55:42.080Z,103304.16
2023-02-11T22:58:27.601Z,103294.56
2023-02-11T23:01:14.406Z,103306.75
2023-02-11T23:04:01.920Z,103301.38
2023-02-11T23:06:50.552Z,103311.69
2023-02-11T23:09:35.736Z,103308.22
2023-02-11T23:12:21.283Z,103317.81
2023-02-11T23:15:07.263Z,103315.06
2023-02-11T23:17:52.874Z,103307.16
2023-02-11T23:20:41.620Z,103312.28
2023-02-11T23:23:27.009Z,103314.72
2023-02-11T23:26:15.591Z,103308.72
2023-02-11T23:29:01.361Z,103312.28
2023-02-11T23:31:47.372Z,103314.94
2023-02-11T23:34:32.748Z,103307.16
2023-02-11T23:37:18.522Z,103307.06
2023-02-11T23:40:04.435Z,103313.91
2023-02-11T23:42:50.092Z,103311.16
2023-02-11T23:45:35.533Z,103300.69
2023-02-11T23:48:21.004Z,103304.00
2023-02-11T23:51:09.722Z,103307.25
2023-02-11T23:53:56.307Z,103314.91
2023-02-11T23:56:42.679Z,103315.63
2023-02-11T23:59:28.210Z,103309.47
